Terminal Aerodrome Forecast
Issued by NWS Spokane, WA

Home | Current Version | Previous Version | Text Only | Print | Product List | Glossary On
Versions: 1 2 3 4 5 6 7 8 9 10 11 12 13 14 15 16 17 18 19 20 21 22 23 24 25 26
000
FTUS46 KOTX 281419 AAA
TAFLWS
TAF AMD
KLWS 281419Z 2814/2912 13003KT 1/2SM FG VV002
     FM281800 VRB02KT 4SM BR BKN004
     FM282200 VRB02KT P6SM OVC020
     FM290600 10003KT P6SM BKN030=

USA.gov is the U.S. government's official web portal to all federal, state and local government web resources and services.